sensor_id;sensor_type;location;lat;lon;timestamp;pressure;altitude;pressure_sealevel;temperature;humidity
69622;BME280;56841;55.964;37.674;2024-01-06T00:01:52;99186.75;;;-17.25;73.59
69622;BME280;56841;55.964;37.674;2024-01-06T00:04:19;99185.03;;;-17.16;72.78
69622;BME280;56841;55.964;37.674;2024-01-06T00:06:44;99185.81;;;-17.01;72.76
69622;BME280;56841;55.964;37.674;2024-01-06T00:09:10;99188.22;;;-16.85;72.51
69622;BME280;56841;55.964;37.674;2024-01-06T00:11:36;99192.31;;;-16.72;72.34
69622;BME280;56841;55.964;37.674;2024-01-06T00:14:02;99184.75;;;-16.67;72.40
69622;BME280;56841;55.964;37.674;2024-01-06T00:16:27;99178.00;;;-16.67;71.75
69622;BME280;56841;55.964;37.674;2024-01-06T00:18:53;99174.63;;;-16.67;71.99
69622;BME280;56841;55.964;37.674;2024-01-06T00:21:19;99180.38;;;-16.44;72.12
69622;BME280;56841;55.964;37.674;2024-01-06T00:23:45;99178.53;;;-16.28;71.14
69622;BME280;56841;55.964;37.674;2024-01-06T00:26:11;99163.47;;;-16.42;70.61
69622;BME280;56841;55.964;37.674;2024-01-06T00:28:38;99178.69;;;-16.43;70.78
69622;BME280;56841;55.964;37.674;2024-01-06T00:31:05;99173.63;;;-16.46;71.22
69622;BME280;56841;55.964;37.674;2024-01-06T00:33:32;99166.06;;;-16.51;71.39
69622;BME280;56841;55.964;37.674;2024-01-06T00:35:57;99167.00;;;-16.61;71.77
69622;BME280;56841;55.964;37.674;2024-01-06T00:38:23;99166.22;;;-16.69;72.38
69622;BME280;56841;55.964;37.674;2024-01-06T00:40:49;99167.84;;;-16.58;72.80
69622;BME280;56841;55.964;37.674;2024-01-06T00:43:15;99175.19;;;-16.32;72.15
69622;BME280;56841;55.964;37.674;2024-01-06T00:45:41;99166.81;;;-16.34;72.23
69622;BME280;56841;55.964;37.674;2024-01-06T00:48:07;99162.50;;;-16.26;71.81
69622;BME280;56841;55.964;37.674;2024-01-06T00:50:32;99160.69;;;-16.10;71.48
69622;BME280;56841;55.964;37.674;2024-01-06T00:52:58;99164.22;;;-16.31;71.06
69622;BME280;56841;55.964;37.674;2024-01-06T00:55:24;99159.91;;;-16.13;71.96
69622;BME280;56841;55.964;37.674;2024-01-06T00:57:50;99166.50;;;-16.03;72.24
69622;BME280;56841;55.964;37.674;2024-01-06T01:00:16;99180.03;;;-16.06;71.15
69622;BME280;56841;55.964;37.674;2024-01-06T01:02:41;99171.69;;;-16.17;71.22
69622;BME280;56841;55.964;37.674;2024-01-06T01:05:07;99184.34;;;-16.15;71.79
69622;BME280;56841;55.964;37.674;2024-01-06T01:07:36;99173.50;;;-16.27;71.71
69622;BME280;56841;55.964;37.674;2024-01-06T01:10:03;99165.22;;;-16.44;72.49
69622;BME280;56841;55.964;37.674;2024-01-06T01:12:29;99169.34;;;-16.34;72.72
69622;BME280;56841;55.964;37.674;2024-01-06T01:14:54;99171.78;;;-16.26;73.26
69622;BME280;56841;55.964;37.674;2024-01-06T01:17:20;99165.91;;;-16.28;72.71
69622;BME280;56841;55.964;37.674;2024-01-06T01:19:46;99172.84;;;-16.53;72.74
69622;BME280;56841;55.964;37.674;2024-01-06T01:22:12;99180.28;;;-16.33;72.80
69622;BME280;56841;55.964;37.674;2024-01-06T01:24:38;99181.13;;;-16.33;72.53
69622;BME280;56841;55.964;37.674;2024-01-06T01:27:04;99186.97;;;-16.26;72.55
69622;BME280;56841;55.964;37.674;2024-01-06T01:29:30;99178.63;;;-16.39;72.69
69622;BME280;56841;55.964;37.674;2024-01-06T01:31:56;99177.78;;;-16.41;73.30
69622;BME280;56841;55.964;37.674;2024-01-06T01:34:22;99178.47;;;-16.19;73.75
69622;BME280;56841;55.964;37.674;2024-01-06T01:36:47;99181.94;;;-16.32;73.00
69622;BME280;56841;55.964;37.674;2024-01-06T01:39:13;99184.38;;;-16.20;72.96
69622;BME280;56841;55.964;37.674;2024-01-06T01:41:40;99181.75;;;-16.09;73.04
69622;BME280;56841;55.964;37.674;2024-01-06T01:44:06;99179.25;;;-16.14;72.39
69622;BME280;56841;55.964;37.674;2024-01-06T01:46:33;99174.53;;;-16.51;72.38
69622;BME280;56841;55.964;37.674;2024-01-06T01:49:00;99171.97;;;-16.49;72.45
69622;BME280;56841;55.964;37.674;2024-01-06T01:51:29;99168.66;;;-16.59;73.11
69622;BME280;56841;55.964;37.674;2024-01-06T01:53:57;99165.09;;;-16.35;73.37
69622;BME280;56841;55.964;37.674;2024-01-06T01:56:24;99161.66;;;-16.25;72.46
69622;BME280;56841;55.964;37.674;2024-01-06T01:58:50;99154.09;;;-16.28;72.74
69622;BME280;56841;55.964;37.674;2024-01-06T02:01:17;99155.78;;;-16.28;72.58
69622;BME280;56841;55.964;37.674;2024-01-06T02:03:43;99155.88;;;-16.39;72.05
69622;BME280;56841;55.964;37.674;2024-01-06T02:06:10;99152.34;;;-16.18;72.84
69622;BME280;56841;55.964;37.674;2024-01-06T02:08:36;99149.00;;;-16.21;72.32
69622;BME280;56841;55.964;37.674;2024-01-06T02:11:03;99143.97;;;-16.26;72.18
69622;BME280;56841;55.964;37.674;2024-01-06T02:13:36;99146.59;;;-16.35;72.38
69622;BME280;56841;55.964;37.674;2024-01-06T02:16:05;99142.44;;;-16.42;72.53
69622;BME280;56841;55.964;37.674;2024-01-06T02:18:32;99153.19;;;-16.20;72.86
69622;BME280;56841;55.964;37.674;2024-01-06T02:21:00;99142.09;;;-16.07;73.25
69622;BME280;56841;55.964;37.674;2024-01-06T02:23:29;99148.69;;;-15.91;72.40
69622;BME280;56841;55.964;37.674;2024-01-06T02:25:56;99142.03;;;-15.98;72.76
69622;BME280;56841;55.964;37.674;2024-01-06T02:28:22;99147.03;;;-15.92;72.43
69622;BME280;56841;55.964;37.674;2024-01-06T02:30:48;99145.22;;;-15.81;71.60
69622;BME280;56841;55.964;37.674;2024-01-06T02:33:14;99146.88;;;-15.80;71.73
69622;BME280;56841;55.964;37.674;2024-01-06T02:35:40;99144.19;;;-15.64;72.00
69622;BME280;56841;55.964;37.674;2024-01-06T02:38:07;99155.31;;;-15.78;71.66
69622;BME280;56841;55.964;37.674;2024-01-06T02:40:34;99156.13;;;-15.74;72.32
69622;BME280;56841;55.964;37.674;2024-01-06T02:43:00;99153.44;;;-15.62;72.46
69622;BME280;56841;55.964;37.674;2024-01-06T02:45:25;99154.16;;;-15.50;72.38
69622;BME280;56841;55.964;37.674;2024-01-06T02:47:51;99164.25;;;-15.49;72.36
69622;BME280;56841;55.964;37.674;2024-01-06T02:50:18;99154.00;;;-15.40;72.43
69622;BME280;56841;55.964;37.674;2024-01-06T02:52:44;99157.53;;;-15.53;71.08
69622;BME280;56841;55.964;37.674;2024-01-06T02:55:11;99165.06;;;-15.48;71.79
69622;BME280;56841;55.964;37.674;2024-01-06T02:57:37;99165.03;;;-15.45;72.04
69622;BME280;56841;55.964;37.674;2024-01-06T03:00:03;99163.41;;;-15.48;72.51
69622;BME280;56841;55.964;37.674;2024-01-06T03:02:29;99149.84;;;-15.44;71.90
69622;BME280;56841;55.964;37.674;2024-01-06T03:04:55;99155.25;;;-15.73;71.80
69622;BME280;56841;55.964;37.674;2024-01-06T03:07:22;99155.97;;;-15.63;73.02
69622;BME280;56841;55.964;37.674;2024-01-06T03:09:48;99163.69;;;-15.72;72.26
69622;BME280;56841;55.964;37.674;2024-01-06T03:12:14;99148.59;;;-15.79;73.08
69622;BME280;56841;55.964;37.674;2024-01-06T03:14:40;99147.16;;;-16.07;72.96
69622;BME280;56841;55.964;37.674;2024-01-06T03:17:06;99157.44;;;-16.22;73.36
69622;BME280;56841;55.964;37.674;2024-01-06T03:19:32;99145.44;;;-16.04;73.38
69622;BME280;56841;55.964;37.674;2024-01-06T03:21:58;99140.25;;;-15.90;73.37
69622;BME280;56841;55.964;37.674;2024-01-06T03:24:25;99143.59;;;-15.86;73.42
69622;BME280;56841;55.964;37.674;2024-01-06T03:26:51;99146.16;;;-15.88;73.47
69622;BME280;56841;55.964;37.674;2024-01-06T03:29:17;99139.94;;;-15.64;73.79
69622;BME280;56841;55.964;37.674;2024-01-06T03:31:44;99139.19;;;-15.67;72.72
69622;BME280;56841;55.964;37.674;2024-01-06T03:34:10;99136.69;;;-15.70;73.01
69622;BME280;56841;55.964;37.674;2024-01-06T03:36:40;99141.13;;;-15.91;73.07
69622;BME280;56841;55.964;37.674;2024-01-06T03:39:07;99147.66;;;-15.73;73.23
69622;BME280;56841;55.964;37.674;2024-01-06T03:41:33;99132.44;;;-15.68;72.51
69622;BME280;56841;55.964;37.674;2024-01-06T03:43:59;99146.84;;;-15.73;72.56
69622;BME280;56841;55.964;37.674;2024-01-06T03:46:25;99146.84;;;-15.73;72.19
69622;BME280;56841;55.964;37.674;2024-01-06T03:48:51;99151.75;;;-15.63;72.50
69622;BME280;56841;55.964;37.674;2024-01-06T03:51:17;99145.13;;;-15.73;72.41
69622;BME280;56841;55.964;37.674;2024-01-06T03:53:43;99153.00;;;-16.01;72.53
69622;BME280;56841;55.964;37.674;2024-01-06T03:56:09;99153.75;;;-15.89;73.22
69622;BME280;56841;55.964;37.674;2024-01-06T03:58:34;99152.91;;;-15.90;72.80
69622;BME280;56841;55.964;37.674;2024-01-06T04:01:01;99157.03;;;-15.83;73.49
69622;BME280;56841;55.964;37.674;2024-01-06T04:03:27;99156.09;;;-15.71;73.10
69622;BME280;56841;55.964;37.674;2024-01-06T04:05:52;99158.72;;;-15.79;72.01
69622;BME280;56841;55.964;37.674;2024-01-06T04:08:19;99155.41;;;-15.85;72.54
69622;BME280;56841;55.964;37.674;2024-01-06T04:10:44;99163.81;;;-15.85;72.83
69622;BME280;56841;55.964;37.674;2024-01-06T04:13:11;99160.34;;;-15.74;72.89
69622;BME280;56841;55.964;37.674;2024-01-06T04:15:37;99160.31;;;-15.73;73.33
69622;BME280;56841;55.964;37.674;2024-01-06T04:18:04;99156.19;;;-15.83;72.79
69622;BME280;56841;55.964;37.674;2024-01-06T04:20:31;99163.66;;;-15.69;73.42
69622;BME280;56841;55.964;37.674;2024-01-06T04:22:58;99152.41;;;-15.48;73.32
69622;BME280;56841;55.964;37.674;2024-01-06T04:25:24;99153.97;;;-15.38;73.08
69622;BME280;56841;55.964;37.674;2024-01-06T04:27:50;99159.41;;;-15.66;72.21
69622;BME280;56841;55.964;37.674;2024-01-06T04:30:16;99158.50;;;-15.63;73.12
69622;BME280;56841;55.964;37.674;2024-01-06T04:32:43;99161.13;;;-15.69;73.05
69622;BME280;56841;55.964;37.674;2024-01-06T04:35:09;99157.66;;;-15.64;72.75
69622;BME280;56841;55.964;37.674;2024-01-06T04:37:36;99170.47;;;-15.74;72.59
69622;BME280;56841;55.964;37.674;2024-01-06T04:40:02;99173.06;;;-15.81;73.28
69622;BME280;56841;55.964;37.674;2024-01-06T04:42:29;99169.81;;;-15.96;74.05
69622;BME280;56841;55.964;37.674;2024-01-06T04:44:55;99165.44;;;-15.78;73.56
69622;BME280;56841;55.964;37.674;2024-01-06T04:47:21;99172.00;;;-15.64;73.85
69622;BME280;56841;55.964;37.674;2024-01-06T04:49:47;99170.34;;;-15.65;73.36
69622;BME280;56841;55.964;37.674;2024-01-06T04:52:13;99165.34;;;-15.70;73.81
69622;BME280;56841;55.964;37.674;2024-01-06T04:54:39;99171.28;;;-15.71;73.77
69622;BME280;56841;55.964;37.674;2024-01-06T04:57:05;99167.06;;;-15.72;73.66
69622;BME280;56841;55.964;37.674;2024-01-06T04:59:31;99168.72;;;-15.68;73.76
69622;BME280;56841;55.964;37.674;2024-01-06T05:01:57;99172.09;;;-15.69;73.31
69622;BME280;56841;55.964;37.674;2024-01-06T05:04:24;99177.00;;;-15.57;73.53
69622;BME280;56841;55.964;37.674;2024-01-06T05:06:51;99173.56;;;-15.53;73.25
69622;BME280;56841;55.964;37.674;2024-01-06T05:09:17;99171.97;;;-15.63;72.80
69622;BME280;56841;55.964;37.674;2024-01-06T05:11:44;99177.03;;;-15.63;73.32
69622;BME280;56841;55.964;37.674;2024-01-06T05:14:10;99179.69;;;-15.70;73.74
69622;BME280;56841;55.964;37.674;2024-01-06T05:16:36;99180.63;;;-15.78;73.82
69622;BME280;56841;55.964;37.674;2024-01-06T05:19:02;99174.41;;;-15.54;74.56
69622;BME280;56841;55.964;37.674;2024-01-06T05:21:29;99179.53;;;-15.58;73.08
69622;BME280;56841;55.964;37.674;2024-01-06T05:23:55;99183.09;;;-15.71;73.59
69622;BME280;56841;55.964;37.674;2024-01-06T05:26:21;99184.72;;;-15.67;73.79
69622;BME280;56841;55.964;37.674;2024-01-06T05:28:48;99187.22;;;-15.66;73.48
69622;BME280;56841;55.964;37.674;2024-01-06T05:31:13;99187.84;;;-15.48;73.76
69622;BME280;56841;55.964;37.674;2024-01-06T05:33:40;99191.22;;;-15.46;72.98
69622;BME280;56841;55.964;37.674;2024-01-06T05:36:06;99183.56;;;-15.40;72.57
69622;BME280;56841;55.964;37.674;2024-01-06T05:38:32;99190.31;;;-15.41;72.39
69622;BME280;56841;55.964;37.674;2024-01-06T05:40:58;99189.66;;;-15.55;72.48
69622;BME280;56841;55.964;37.674;2024-01-06T05:43:24;99186.97;;;-15.43;72.85
69622;BME280;56841;55.964;37.674;2024-01-06T05:45:50;99191.13;;;-15.39;72.33
69622;BME280;56841;55.964;37.674;2024-01-06T05:48:16;99200.47;;;-15.44;72.25
69622;BME280;56841;55.964;37.674;2024-01-06T05:50:42;99198.19;;;-15.65;72.23
69622;BME280;56841;55.964;37.674;2024-01-06T05:53:08;99196.53;;;-15.68;73.05
69622;BME280;56841;55.964;37.674;2024-01-06T05:55:36;99196.75;;;-15.88;73.07
69622;BME280;56841;55.964;37.674;2024-01-06T05:58:02;99188.22;;;-15.81;73.76
69622;BME280;56841;55.964;37.674;2024-01-06T06:00:28;99195.75;;;-15.71;73.56
69622;BME280;56841;55.964;37.674;2024-01-06T06:02:57;99188.06;;;-15.65;73.31
69622;BME280;56841;55.964;37.674;2024-01-06T06:05:25;99202.44;;;-15.67;73.07
69622;BME280;56841;55.964;37.674;2024-01-06T06:07:51;99209.41;;;-15.89;73.19
69622;BME280;56841;55.964;37.674;2024-01-06T06:10:17;99203.50;;;-15.88;73.68
69622;BME280;56841;55.964;37.674;2024-01-06T06:12:47;99200.03;;;-15.78;73.30
69622;BME280;56841;55.964;37.674;2024-01-06T06:15:13;99201.84;;;-15.92;73.77
69622;BME280;56841;55.964;37.674;2024-01-06T06:17:39;99184.91;;;-15.84;74.31
69622;BME280;56841;55.964;37.674;2024-01-06T06:20:05;99195.03;;;-15.87;73.78
69622;BME280;56841;55.964;37.674;2024-01-06T06:22:34;99202.53;;;-15.75;73.76
69622;BME280;56841;55.964;37.674;2024-01-06T06:25:00;99194.91;;;-15.72;74.20
69622;BME280;56841;55.964;37.674;2024-01-06T06:27:26;99203.19;;;-15.61;73.58
69622;BME280;56841;55.964;37.674;2024-01-06T06:29:53;99211.47;;;-15.46;73.47
69622;BME280;56841;55.964;37.674;2024-01-06T06:32:19;99208.00;;;-15.38;72.51
69622;BME280;56841;55.964;37.674;2024-01-06T06:34:45;99220.59;;;-15.33;72.49
69622;BME280;56841;55.964;37.674;2024-01-06T06:37:11;99215.63;;;-15.41;72.35
69622;BME280;56841;55.964;37.674;2024-01-06T06:39:37;99222.44;;;-15.44;71.95
69622;BME280;56841;55.964;37.674;2024-01-06T06:42:03;99217.47;;;-15.55;72.85
69622;BME280;56841;55.964;37.674;2024-01-06T06:44:29;99217.41;;;-15.47;72.76
69622;BME280;56841;55.964;37.674;2024-01-06T06:46:56;99220.72;;;-15.44;73.09
69622;BME280;56841;55.964;37.674;2024-01-06T06:49:22;99221.69;;;-15.54;73.22
69622;BME280;56841;55.964;37.674;2024-01-06T06:51:48;99218.00;;;-15.29;72.90
69622;BME280;56841;55.964;37.674;2024-01-06T06:54:16;99223.22;;;-15.42;72.26
69622;BME280;56841;55.964;37.674;2024-01-06T06:56:42;99226.59;;;-15.40;72.44
69622;BME280;56841;55.964;37.674;2024-01-06T06:59:08;99223.13;;;-15.33;72.60
69622;BME280;56841;55.964;37.674;2024-01-06T07:01:35;99222.94;;;-15.18;73.00
69622;BME280;56841;55.964;37.674;2024-01-06T07:04:04;99224.47;;;-15.03;73.45
69622;BME280;56841;55.964;37.674;2024-01-06T07:06:30;99230.25;;;-14.92;72.57
69622;BME280;56841;55.964;37.674;2024-01-06T07:08:57;99241.94;;;-14.82;71.86
69622;BME280;56841;55.964;37.674;2024-01-06T07:11:23;99229.31;;;-14.85;71.68
69622;BME280;56841;55.964;37.674;2024-01-06T07:13:49;99235.81;;;-14.65;72.60
69622;BME280;56841;55.964;37.674;2024-01-06T07:16:15;99235.75;;;-14.59;71.26
69622;BME280;56841;55.964;37.674;2024-01-06T07:18:41;99238.56;;;-14.84;71.57
69622;BME280;56841;55.964;37.674;2024-01-06T07:21:07;99235.03;;;-14.70;71.71
69622;BME280;56841;55.964;37.674;2024-01-06T07:23:34;99236.63;;;-14.63;71.53
69622;BME280;56841;55.964;37.674;2024-01-06T07:26:00;99231.78;;;-14.78;71.23
69622;BME280;56841;55.964;37.674;2024-01-06T07:28:26;99240.03;;;-14.63;71.51
69622;BME280;56841;55.964;37.674;2024-01-06T07:30:53;99238.13;;;-14.50;71.73
69622;BME280;56841;55.964;37.674;2024-01-06T07:33:19;99245.78;;;-14.53;71.16
69622;BME280;56841;55.964;37.674;2024-01-06T07:35:45;99248.31;;;-14.53;71.12
69622;BME280;56841;55.964;37.674;2024-01-06T07:38:12;99234.66;;;-14.44;71.46
69622;BME280;56841;55.964;37.674;2024-01-06T07:40:38;99240.38;;;-14.33;71.67
69622;BME280;56841;55.964;37.674;2024-01-06T07:43:04;99236.16;;;-14.33;70.90
69622;BME280;56841;55.964;37.674;2024-01-06T07:45:33;99231.09;;;-14.33;70.50
69622;BME280;56841;55.964;37.674;2024-01-06T07:47:59;99235.09;;;-14.18;70.74
69622;BME280;56841;55.964;37.674;2024-01-06T07:50:25;99231.56;;;-14.07;70.29
69622;BME280;56841;55.964;37.674;2024-01-06T07:52:51;99234.38;;;-14.26;69.89
69622;BME280;56841;55.964;37.674;2024-01-06T07:55:17;99229.91;;;-14.10;70.04
69622;BME280;56841;55.964;37.674;2024-01-06T07:57:44;99235.81;;;-14.08;70.32
69622;BME280;56841;55.964;37.674;2024-01-06T08:00:11;99248.03;;;-13.80;70.80
69622;BME280;56841;55.964;37.674;2024-01-06T08:02:41;99246.53;;;-13.91;69.92
69622;BME280;56841;55.964;37.674;2024-01-06T08:05:07;99239.56;;;-13.79;69.51
69622;BME280;56841;55.964;37.674;2024-01-06T08:07:33;99240.44;;;-13.80;69.87
69622;BME280;56841;55.964;37.674;2024-01-06T08:09:59;99234.88;;;-13.54;69.97
69622;BME280;56841;55.964;37.674;2024-01-06T08:12:25;99228.25;;;-13.60;68.62
69622;BME280;56841;55.964;37.674;2024-01-06T08:14:51;99241.56;;;-13.50;69.16
69622;BME280;56841;55.964;37.674;2024-01-06T08:17:17;99232.94;;;-13.40;69.17
69622;BME280;56841;55.964;37.674;2024-01-06T08:19:48;99228.19;;;-13.58;68.77
69622;BME280;56841;55.964;37.674;2024-01-06T08:22:14;99243.47;;;-13.62;68.89
69622;BME280;56841;55.964;37.674;2024-01-06T08:24:40;99232.81;;;-13.80;69.16
69622;BME280;56841;55.964;37.674;2024-01-06T08:27:06;99212.19;;;-14.13;69.98
69622;BME280;56841;55.964;37.674;2024-01-06T08:29:33;99218.69;;;-13.97;70.33
69622;BME280;56841;55.964;37.674;2024-01-06T08:32:01;99215.06;;;-13.82;70.21
69622;BME280;56841;55.964;37.674;2024-01-06T08:34:27;99211.34;;;-13.64;70.18
69622;BME280;56841;55.964;37.674;2024-01-06T08:36:53;99212.03;;;-13.53;70.00
69622;BME280;56841;55.964;37.674;2024-01-06T08:39:18;99211.78;;;-13.41;69.58
69622;BME280;56841;55.964;37.674;2024-01-06T08:41:45;99215.16;;;-13.40;68.87
69622;BME280;56841;55.964;37.674;2024-01-06T08:44:12;99208.06;;;-13.69;69.50
69622;BME280;56841;55.964;37.674;2024-01-06T08:46:38;99213.47;;;-13.41;69.87
69622;BME280;56841;55.964;37.674;2024-01-06T08:49:05;99201.03;;;-13.53;69.05
69622;BME280;56841;55.964;37.674;2024-01-06T08:51:31;99208.19;;;-13.30;69.19
69622;BME280;56841;55.964;37.674;2024-01-06T08:53:57;99194.19;;;-13.50;69.27
69622;BME280;56841;55.964;37.674;2024-01-06T08:56:24;99194.66;;;-13.31;69.87
69622;BME280;56841;55.964;37.674;2024-01-06T08:58:50;99203.75;;;-13.19;69.89
69622;BME280;56841;55.964;37.674;2024-01-06T09:01:16;99201.97;;;-13.17;68.80
69622;BME280;56841;55.964;37.674;2024-01-06T09:03:44;99203.59;;;-13.13;68.51
69622;BME280;56841;55.964;37.674;2024-01-06T09:06:10;99203.28;;;-12.98;69.31
69622;BME280;56841;55.964;37.674;2024-01-06T09:08:36;99217.59;;;-13.34;68.29
69622;BME280;56841;55.964;37.674;2024-01-06T09:11:02;99213.84;;;-13.61;69.28
69622;BME280;56841;55.964;37.674;2024-01-06T09:13:28;99211.44;;;-13.67;70.04
69622;BME280;56841;55.964;37.674;2024-01-06T09:15:57;99205.44;;;-13.63;70.22
69622;BME280;56841;55.964;37.674;2024-01-06T09:18:23;99203.94;;;-13.28;70.50
69622;BME280;56841;55.964;37.674;2024-01-06T09:20:49;99200.00;;;-13.03;69.77
69622;BME280;56841;55.964;37.674;2024-01-06T09:23:16;99200.41;;;-12.81;68.74
69622;BME280;56841;55.964;37.674;2024-01-06T09:25:42;99205.44;;;-12.79;68.09
69622;BME280;56841;55.964;37.674;2024-01-06T09:28:08;99200.50;;;-13.26;68.94
69622;BME280;56841;55.964;37.674;2024-01-06T09:30:34;99194.00;;;-13.41;69.63
69622;BME280;56841;55.964;37.674;2024-01-06T09:33:00;99194.66;;;-13.29;69.90
69622;BME280;56841;55.964;37.674;2024-01-06T09:35:27;99195.84;;;-13.07;68.98
69622;BME280;56841;55.964;37.674;2024-01-06T09:37:53;99199.00;;;-12.96;69.89
69622;BME280;56841;55.964;37.674;2024-01-06T09:40:23;99195.44;;;-12.87;68.96
69622;BME280;56841;55.964;37.674;2024-01-06T09:42:50;99185.34;;;-12.90;69.33
69622;BME280;56841;55.964;37.674;2024-01-06T09:45:16;99192.38;;;-12.62;69.43
69622;BME280;56841;55.964;37.674;2024-01-06T09:47:48;99198.59;;;-12.76;68.09
69622;BME280;56841;55.964;37.674;2024-01-06T09:50:17;99197.28;;;-12.94;68.75
69622;BME280;56841;55.964;37.674;2024-01-06T09:52:45;99183.72;;;-12.94;68.95
69622;BME280;56841;55.964;37.674;2024-01-06T09:55:23;99184.50;;;-12.91;68.90
69622;BME280;56841;55.964;37.674;2024-01-06T09:57:50;99188.13;;;-13.02;68.89
69622;BME280;56841;55.964;37.674;2024-01-06T10:00:17;99189.53;;;-12.87;68.74
69622;BME280;56841;55.964;37.674;2024-01-06T10:02:44;99187.56;;;-12.75;69.10
69622;BME280;56841;55.964;37.674;2024-01-06T10:05:12;99183.13;;;-12.67;68.78
69622;BME280;56841;55.964;37.674;2024-01-06T10:07:42;99175.34;;;-12.59;68.75
69622;BME280;56841;55.964;37.674;2024-01-06T10:10:09;99173.16;;;-12.38;69.02
69622;BME280;56841;55.964;37.674;2024-01-06T10:12:40;99182.38;;;-12.33;68.43
69622;BME280;56841;55.964;37.674;2024-01-06T10:15:08;99175.91;;;-12.48;67.81
69622;BME280;56841;55.964;37.674;2024-01-06T10:17:38;99168.16;;;-12.42;68.83
69622;BME280;56841;55.964;37.674;2024-01-06T10:20:10;99168.00;;;-12.34;68.75
69622;BME280;56841;55.964;37.674;2024-01-06T10:22:37;99161.94;;;-12.30;68.39
69622;BME280;56841;55.964;37.674;2024-01-06T10:25:08;99165.44;;;-12.34;68.73
69622;BME280;56841;55.964;37.674;2024-01-06T10:27:37;99166.41;;;-12.39;67.39
69622;BME280;56841;55.964;37.674;2024-01-06T10:30:05;99157.13;;;-12.40;67.86
69622;BME280;56841;55.964;37.674;2024-01-06T10:32:32;99157.72;;;-12.31;68.46
69622;BME280;56841;55.964;37.674;2024-01-06T10:35:00;99152.13;;;-12.09;68.93
69622;BME280;56841;55.964;37.674;2024-01-06T10:37:30;99157.91;;;-12.03;67.64
69622;BME280;56841;55.964;37.674;2024-01-06T10:40:12;99149.56;;;-12.09;67.42
69622;BME280;56841;55.964;37.674;2024-01-06T10:42:39;99152.81;;;-12.03;67.53
69622;BME280;56841;55.964;37.674;2024-01-06T10:45:10;99145.75;;;-12.27;67.32
69622;BME280;56841;55.964;37.674;2024-01-06T10:47:37;99148.41;;;-11.96;67.65
69622;BME280;56841;55.964;37.674;2024-01-06T10:50:04;99149.84;;;-12.20;67.50
69622;BME280;56841;55.964;37.674;2024-01-06T10:52:31;99150.63;;;-12.18;68.26
69622;BME280;56841;55.964;37.674;2024-01-06T10:54:57;99150.78;;;-12.60;68.11
69622;BME280;56841;55.964;37.674;2024-01-06T10:57:24;99154.59;;;-12.79;69.13
69622;BME280;56841;55.964;37.674;2024-01-06T10:59:50;99154.97;;;-12.59;69.73
69622;BME280;56841;55.964;37.674;2024-01-06T11:02:18;99150.25;;;-12.74;69.58
69622;BME280;56841;55.964;37.674;2024-01-06T11:04:46;99149.94;;;-12.60;70.08
69622;BME280;56841;55.964;37.674;2024-01-06T11:07:18;99146.75;;;-12.33;70.09
69622;BME280;56841;55.964;37.674;2024-01-06T11:09:57;99155.28;;;-12.35;69.59
69622;BME280;56841;55.964;37.674;2024-01-06T11:12:29;99153.66;;;-12.38;69.27
69622;BME280;56841;55.964;37.674;2024-01-06T11:14:54;99144.41;;;-12.40;70.26
69622;BME280;56841;55.964;37.674;2024-01-06T11:17:50;99151.28;;;-12.46;70.45
69622;BME280;56841;55.964;37.674;2024-01-06T11:20:20;99156.13;;;-12.72;70.50
69622;BME280;56841;55.964;37.674;2024-01-06T11:22:50;99150.00;;;-13.02;71.58
69622;BME280;56841;55.964;37.674;2024-01-06T11:25:17;99149.28;;;-13.07;71.91
69622;BME280;56841;55.964;37.674;2024-01-06T11:27:49;99149.66;;;-13.24;72.75
69622;BME280;56841;55.964;37.674;2024-01-06T11:30:20;99140.75;;;-13.45;73.58
69622;BME280;56841;55.964;37.674;2024-01-06T11:32:47;99151.38;;;-13.26;73.84
69622;BME280;56841;55.964;37.674;2024-01-06T11:35:17;99156.53;;;-13.29;73.11
69622;BME280;56841;55.964;37.674;2024-01-06T11:42:48;99159.97;;;-13.32;73.68
69622;BME280;56841;55.964;37.674;2024-01-06T11:45:21;99161.38;;;-13.20;73.23
69622;BME280;56841;55.964;37.674;2024-01-06T11:47:48;99156.38;;;-13.23;73.68
69622;BME280;56841;55.964;37.674;2024-01-06T11:50:17;99157.91;;;-13.56;73.82
69622;BME280;56841;55.964;37.674;2024-01-06T11:52:44;99160.94;;;-13.82;75.69
69622;BME280;56841;55.964;37.674;2024-01-06T11:55:10;99165.38;;;-13.94;76.19
69622;BME280;56841;55.964;37.674;2024-01-06T11:57:36;99163.41;;;-13.79;75.28
69622;BME280;56841;55.964;37.674;2024-01-06T12:00:03;99169.75;;;-14.05;76.45
69622;BME280;56841;55.964;37.674;2024-01-06T12:02:32;99167.81;;;-13.88;76.11
69622;BME280;56841;55.964;37.674;2024-01-06T12:04:58;99175.56;;;-13.98;75.08
69622;BME280;56841;55.964;37.674;2024-01-06T12:07:24;99177.81;;;-13.81;75.33
69622;BME280;56841;55.964;37.674;2024-01-06T12:09:51;99177.03;;;-13.85;74.94
69622;BME280;56841;55.964;37.674;2024-01-06T12:12:26;99177.66;;;-13.72;74.80
69622;BME280;56841;55.964;37.674;2024-01-06T12:14:51;99181.28;;;-13.86;74.36
69622;BME280;56841;55.964;37.674;2024-01-06T12:17:20;99177.13;;;-13.90;74.31
69622;BME280;56841;55.964;37.674;2024-01-06T12:19:47;99191.66;;;-13.98;75.00
69622;BME280;56841;55.964;37.674;2024-01-06T12:22:15;99175.75;;;-14.07;74.81
69622;BME280;56841;55.964;37.674;2024-01-06T12:24:41;99170.50;;;-13.97;75.46
69622;BME280;56841;55.964;37.674;2024-01-06T12:27:09;99178.28;;;-14.07;75.62
69622;BME280;56841;55.964;37.674;2024-01-06T12:29:40;99187.75;;;-14.17;76.06
69622;BME280;56841;55.964;37.674;2024-01-06T12:32:06;99187.00;;;-14.24;76.50
69622;BME280;56841;55.964;37.674;2024-01-06T12:34:34;99189.63;;;-14.30;76.46
69622;BME280;56841;55.964;37.674;2024-01-06T12:37:00;99189.84;;;-14.42;76.80
69622;BME280;56841;55.964;37.674;2024-01-06T12:39:30;99194.63;;;-14.24;77.79
69622;BME280;56841;55.964;37.674;2024-01-06T12:41:56;99192.78;;;-14.14;77.24
69622;BME280;56841;55.964;37.674;2024-01-06T12:44:23;99195.03;;;-14.50;77.39